Aérodrome :
LOGIN :

S'inscrire | Disclaimer

   EN    FR    IT 

 










Légende :    VFR   VFR Marginal   IFR   IFR Intensif   IFR Très Intensif
Visi : 
Plafond : 
>= 8 km
>= 3000ft
5 à 8 km
1000 à 3000 ft
1500m à 5 km
500 à 1000 ft
800 à 1500m
200 à 500 ft
< 800m
< 200 ft
Symboles :   Orages  Brouillard  Fortes neiges  Fortes précipitations  Vent > 20 kt
SIGMETs :   Divers  Orages  Givrage  Turbulence  Onde Orograph.  Cendres Volcan.






- Altitude de l'aérodrome : 446 ft
- Code IATA : VNE


LFRV - Vannes-Meucon

DERNIER METAR :
  • 062030Z AUTO 23004KT 200V270 9999 OVC040 11/10 Q1016

METARs EXPIRÉS :
  • 062000Z AUTO 26006KT 230V290 9999 BKN009 OVC040 11/10 Q1016
  • 061930Z AUTO 25005KT 220V290 9999 BKN005 OVC040 11/10 Q1015
  • 061900Z AUTO 26005KT 220V300 9999 OVC005 11/11 Q1015
  • 061830Z AUTO 26006KT 230V290 9999 OVC004 11/11 Q1015
  • 061800Z AUTO 26007KT 220V290 9999 BKN006 OVC031 11/10 Q1015

TAF N/A



MET'MAP, la Météo Aéronautique d'un coup d'oeil ! - Copyright ORBIFLY Décembre 2007 - Disclaimer

ORBIFLY MET'MAP TEAM :

Programmation & Développement : Alexandra Zaïnal
Sur une idée originale de : Baudouin d'Aumeries
Assistance à la programmation : Marc-Olivier Méhu
Soutien technique & logistique : Manuel Goepfert

Contact : metmap@orbifly.com




SOURCES & CREDITS :

   NOAA